View Sortable Currents For Network
ASOSCoCoRaHSCOOPCellular COOPDCPISU Soil Moisture
OtherSCANMy FavoritesBy StateRWISRWIS Surface
RWIS TrafficRWIS SoilBy NWS WFOUSCRN
Select Network:
Include METARS:
Sort Order: Format:

Times shown are for timezone: America/Chicago. The local day summary is based on that timezone.
Table sorted by: (Observation Time)     Click on a column to sort it. Click on site ID for more information. You can download data from this network here and you can view daily summaries on this network.
ADD: ID Station Ob Time Present Wx Temps °F   Wind [knots] Precip Clouds
Air Hi Lo Dewp Feels RH % Alti Vsby Speed Drct Gust @ Time 1 Hour Today Level 1 Level 2 Level 3 Level 4
AWGWASHINGTON09:35 AM525239 27 52 37 30.26 10 14SE21 @ 08:55 AM0 CLR
CNCCHARITON09:35 AM545448 43 54 67 30.17 10 13G23SE23 @ 09:35 AM0 CLR
CSQCRESTON09:35 AM555552 46 55 72 30.12 10 18SE22 @ 09:15 AM0 FEW 9000
OXVKnoxville09:35 AM545448 41 54 62 30.19 10 16SE18 @ 08:15 AM0 BKN 9500
FSWFORT MADISON09:35 AM485043 27 44 43 30.27 10 9G14ESE15 @ 06:35 AM0 SCT 12000
EOKKEOKUK MUNI09:35 AM505043 32 50 50 30.27 10 9E18 @ 07:35 AM0 CLR
ICLCLARINDA09:35 AM555954 M M M 30.11 10 10SE15 @ 07:55 AM0 FEW 11000
AIOATLANTIC09:35 AM555554 46 55 72 30.09 10 11G18SSE18 @ 07:35 AM0 CLR
OLZOELWEIN09:35 AM525239 34 52 50 30.24 10 15S16 @ 08:55 AM0 CLR
SLBStorm Lake09:35 AM555548 43 55 62 30.09 10 18G23SE24 @ 07:55 AM0 CLR
IKVANKENY09:35 AM545448 45 54 71 30.19 10 15G21SE21 @ 09:35 AM0 CLR
SDASHENANDOAH MUNI09:35 AM575954 48 57 72 30.08 10 12SE19 @ 08:55 AM0 BKN 6000 OVC 8500
RDKRED OAK09:35 AM575955 46 57 67 30.09 10 12G17SE23 @ 08:55 AM0 BKN 9000 BKN 11000
DEHDECORAH09:35 AM484837 34 44 57 30.24 10 9SSE16 @ 08:55 AM0 CLR
IIBINDEPENDENCE09:35 AM505037 35 50 56 30.26 10 13SSE16 @ 07:55 AM0 CLR
FXYForest City09:35 AM555545 41 55 58 30.17 10 17G21SE21 @ 09:35 AM0 CLR
I75Osceola09:35 AM545450 43 54 66 30.17 10 11ESE16 @ 09:15 AM0 SCT 9500
LRJLE MARS09:35 AMM M M M 30.03 10 16SE21 @ 09:15 AM0 BKN 8000
CCYCHARLES CITY09:35 AM525243 41 52 66 30.21 10 15SE18 @ 07:15 AM0 CLR
AXAALGONA09:35 AM555548 41 55 58 30.14 10 19G24SSE25 @ 03:55 AM0 SCT 8000
CINCARROLL09:35 AM555550 46 55 72 30.11 10 18G24SE24 @ 09:35 AM0 SCT 11000
ADUAUDUBON09:35 AM555552 46 55 72 30.11 10 12G21SE21 @ 09:35 AM0 SCT 100 SCT 4000 OVC 10000
MUTMUSCATINE09:35 AM505039 23 50 34 30.3 10 10G15SE15 @ 09:35 AM0 CLR
IFAIowa Falls09:35 AM555544 39 55 56 30.2 10 17G22SE22 @ 09:35 AM0 CLR
MXOMONTICELLO MUNI09:35 AM525237 25 52 35 30.27 10 10G16SE16 @ 03:35 AM0 CLR
GGIGrinnell09:35 AM525246 44 52 73 30.23 10 14SE18 @ 09:15 AM0 OVC 12000
EBSWebster City09:35 AM555546 41 55 58 30.15 10 18SE21 @ 08:15 AM0 CLR
CAVCLARION09:35 AM555546 43 55 62 30.17 10 18SSE24 @ 09:15 AM0 SCT 8500
BNWBOONE MUNI09:35 AM555545 45 55 67 30.15 10 17G23SE24 @ 09:15 AM0 FEW 10000 SCT 12000
DNSDENISON09:35 AM555550 46 55 72 30.11 9 12G19SSE22 @ 03:55 AM0 SCT 8500
FFLFAIRFIELD09:35 AM484843 30 42 50 30.25 10 14SE14 @ 09:35 AM0 FEW 9000 SCT 11000
TNUNEWTON MUNI09:35 AM525245 45 52 76 30.19 10 17G23SE23 @ 09:35 AM0 CLR
SXKSioux County09:35 AM575748 39 57 51 30.03 10 21SSE24 @ 05:35 AM0 SCT 10000
HNRHARLAN09:35 AM555552 46 55 72 30.09 10 10G18SE18 @ 09:15 AM0 BKN 9000
MPZMOUNT PLEASANT09:35 AM525243 30 52 43 30.27 10 9ESE15 @ 08:55 AM0 CLR
PEAPELLA09:35 AM525245 42 52 67 30.2 10 13SE18 @ 08:15 AM0 OVC 9000
VTIVINTON09:35 AM535340 36 53 52 30.25 10 10G16SSE16 @ 09:35 AM0 CLR
OOAOskaloosa09:35 AM535346 42 53 65 30.23 10 16SE21 @ 07:55 AM0 SCT 10000
PROPerry09:35 AM555650 43 55 64 30.15 10 15SE19 @ 08:55 AM0 BKN 10000
HPTHampton09:35 AM525241 39 52 62 30.2 10 11G19SSE20 @ 09:15 AM0 CLR
CBFCOUNCIL BLUFFS09:35 AM555954 46 55 72 30.06 10 13G19SE23 @ 08:55 AM0 OVC 7500
SHLSHELDON09:35 AM575750 37 57 47 30.05 10 21G29SSE29 @ 09:35 AM0 FEW 11000
CWICLINTON08:56 AM454535 31 40 58 30.31 10 9SE10 @ 12:00 AM0 CLR
FODFORT DODGE08:56 AM545448 41 54 61 30.16 10 9G16SSE18.2485 @ 06:23 AM0 0 BKN 8000
ALOWaterloo08:54 AM505038 37 50 61 30.23 10 11SE17 @ 03:50 AM0 CLR
DSMDes Moines08:54 AM535451 43 53 69 30.18 10 15SE17 @ 07:15 AM0 BKN 9000 OVC 11000
AMWAmes08:53 AM525243 42 52 69 30.18 10 12G21SE22 @ 08:25 AM0 OVC 10000
BRLBURLINGTON08:53 AM484841 29 43 48 30.28 10 9SE14 @ 05:50 AM0 CLR
MIWMARSHALLTOWN08:53 AM505041 40 50 68 30.2 10 14SE22 @ 09:25 AM0 OVC 10000
OTMOTTUMWA08:53 AM494943 40 44 71 30.24 10 12G20SE21 @ 09:20 AM0 OVC 8500
DBQDUBUQUE08:53 AM454536 24 39 43 30.3 10 11SSE17 @ 04:25 AM0 CLR
MCWMASON CITY08:53 AM525245 38 52 59 30.2 10 15SE22 @ 09:00 AM0 CLR
LWDLAMONI08:53 AM545451 45 54 71 30.15 10 10G17ESE17 @ 08:53 AM0 BKN 10000
SPWSPENCER08:53 AM575749 37 57 47 30.11 10 17SE28 @ 04:05 AM0 T SCT 11000
CIDCEDAR RAPIDS08:52 AM484837 32 42 54 30.24 10 12SSE21 @ 08:30 AM0 SCT 10000
DVNQUAD CITIES08:52 AM464639 29 41 51 30.31 10 8ESE15 @ 01:15 AM0 CLR
SUXSIOUX CITY08:52 AM545752 46 54 74 30.05 10 13SE14 @ 07:50 AM0.01 0.01 FEW 6500 OVC 10000
ESTESTHERVILLE08:52 AM585849 39 58 49 30.12 10 19G26S28 @ 09:00 AM0 CLR
IOWIOWA CITY08:52 AM484843 29 43 48 30.29 10 9ESE19 @ 09:15 AM0 BKN 11000
TVKCentervilleSite Offline
CKPCherokeeSite Offline